createdAt,value
2018-03-31T00:01:38.552Z,10.70
2018-03-31T00:04:05.146Z,10.74
2018-03-31T00:06:32.597Z,10.71
2018-03-31T00:08:59.163Z,10.70
2018-03-31T00:11:25.789Z,10.65
2018-03-31T00:13:53.092Z,10.68
2018-03-31T00:16:19.688Z,10.71
2018-03-31T00:18:47.064Z,10.68
2018-03-31T00:21:13.647Z,10.66
2018-03-31T00:23:40.226Z,10.61
2018-03-31T00:26:06.856Z,10.48
2018-03-31T00:28:34.197Z,10.46
2018-03-31T00:31:01.522Z,10.39
2018-03-31T00:33:28.101Z,10.43
2018-03-31T00:35:55.384Z,10.45
2018-03-31T00:38:21.929Z,10.54
2018-03-31T00:40:48.496Z,10.51
2018-03-31T00:43:15.188Z,10.44
2018-03-31T00:45:41.741Z,10.43
2018-03-31T00:48:08.379Z,10.46
2018-03-31T00:50:35.014Z,10.40
2018-03-31T00:53:01.583Z,10.38
2018-03-31T00:55:28.212Z,10.33
2018-03-31T00:57:54.757Z,10.22
2018-03-31T01:00:21.463Z,10.18
2018-03-31T01:02:48.037Z,10.10
2018-03-31T01:05:14.661Z,10.07
2018-03-31T01:07:41.302Z,10.01
2018-03-31T01:10:07.859Z,9.94
2018-03-31T01:12:35.166Z,9.84
2018-03-31T01:15:01.743Z,9.82
2018-03-31T01:17:29.261Z,9.83
2018-03-31T01:19:55.828Z,9.79
2018-03-31T01:22:22.484Z,9.75
2018-03-31T01:24:49.025Z,9.66
2018-03-31T01:27:16.368Z,9.59
2018-03-31T01:29:43.083Z,9.50
2018-03-31T01:32:09.868Z,9.49
2018-03-31T01:34:37.208Z,9.46
2018-03-31T01:37:04.032Z,9.44
2018-03-31T01:39:30.638Z,9.44
2018-03-31T01:41:57.252Z,9.46
2018-03-31T01:44:23.816Z,9.44
2018-03-31T01:46:50.372Z,9.40
2018-03-31T01:49:16.946Z,9.35
2018-03-31T01:51:44.283Z,9.31
2018-03-31T01:54:10.861Z,9.29
2018-03-31T01:56:37.424Z,9.27
2018-03-31T01:59:04.105Z,9.24
2018-03-31T02:01:30.659Z,9.23
2018-03-31T02:03:57.980Z,9.19
2018-03-31T02:06:24.813Z,9.20
2018-03-31T02:08:51.375Z,9.15
2018-03-31T02:11:18.058Z,9.13
2018-03-31T02:13:44.745Z,9.06
2018-03-31T02:16:11.293Z,9.00
2018-03-31T02:18:38.607Z,8.93
2018-03-31T02:21:05.425Z,8.94
2018-03-31T02:23:32.063Z,8.91
2018-03-31T02:25:58.620Z,8.92
2018-03-31T02:28:25.306Z,8.87
2018-03-31T02:30:52.929Z,8.85
2018-03-31T02:33:19.517Z,8.84
2018-03-31T02:35:46.254Z,8.82
2018-03-31T02:38:13.764Z,8.81
2018-03-31T02:40:40.356Z,8.81
2018-03-31T02:43:06.911Z,8.75
2018-03-31T02:45:33.702Z,8.67
2018-03-31T02:48:00.452Z,8.57
2018-03-31T02:50:27.114Z,8.49
2018-03-31T02:52:53.733Z,8.50
2018-03-31T02:55:21.107Z,8.53
2018-03-31T02:57:47.929Z,8.43
2018-03-31T03:00:15.259Z,8.43
2018-03-31T03:02:41.832Z,8.42
2018-03-31T03:05:09.326Z,8.39
2018-03-31T03:07:35.908Z,8.41
2018-03-31T03:10:02.571Z,8.38
2018-03-31T03:12:29.242Z,8.31
2018-03-31T03:14:56.127Z,8.31
2018-03-31T03:17:22.709Z,8.36
2018-03-31T03:19:49.357Z,8.30
2018-03-31T03:22:15.933Z,8.26
2018-03-31T03:24:42.613Z,8.31
2018-03-31T03:27:09.905Z,8.29
2018-03-31T03:29:36.476Z,8.30
2018-03-31T03:32:03.227Z,8.27
2018-03-31T03:34:30.604Z,8.26
2018-03-31T03:36:57.149Z,8.13
2018-03-31T03:39:23.762Z,8.15
2018-03-31T03:41:51.108Z,8.17
2018-03-31T03:44:18.500Z,8.16
2018-03-31T03:46:45.100Z,8.17
2018-03-31T03:49:12.489Z,8.16
2018-03-31T03:51:39.076Z,8.07
2018-03-31T03:54:05.664Z,8.02
2018-03-31T03:56:32.247Z,7.96
2018-03-31T03:58:58.819Z,7.92
2018-03-31T04:01:26.494Z,7.96
2018-03-31T04:03:53.044Z,7.90
2018-03-31T04:06:19.695Z,7.94
2018-03-31T04:08:46.374Z,7.89
2018-03-31T04:11:12.949Z,7.87
2018-03-31T04:13:39.545Z,7.85
2018-03-31T04:16:06.128Z,7.80
2018-03-31T04:18:32.719Z,7.81
2018-03-31T04:20:59.304Z,7.80
2018-03-31T04:23:25.980Z,7.83
2018-03-31T04:25:52.536Z,7.75
2018-03-31T04:28:19.845Z,7.66
2018-03-31T04:30:46.446Z,7.72
2018-03-31T04:33:13.755Z,7.78
2018-03-31T04:35:40.306Z,7.79
2018-03-31T04:38:06.875Z,7.83
2018-03-31T04:40:33.435Z,7.84
2018-03-31T04:43:00.024Z,7.79
2018-03-31T04:45:26.692Z,7.80
2018-03-31T04:47:53.266Z,7.85
2018-03-31T04:50:19.847Z,7.88
2018-03-31T04:52:47.246Z,7.92
2018-03-31T04:55:13.826Z,8.01
2018-03-31T04:57:40.554Z,8.07
2018-03-31T05:00:07.318Z,8.05
2018-03-31T05:02:34.712Z,7.96
2018-03-31T05:05:01.451Z,8.00
2018-03-31T05:07:28.058Z,7.95
2018-03-31T05:09:55.405Z,7.87
2018-03-31T05:12:22.040Z,7.83
2018-03-31T05:14:49.358Z,7.79
2018-03-31T05:17:16.780Z,7.75
2018-03-31T05:19:43.366Z,7.80
2018-03-31T05:22:09.929Z,7.72
2018-03-31T05:27:38.635Z,7.66
2018-03-31T05:30:05.943Z,7.61
2018-03-31T05:32:32.682Z,7.62
2018-03-31T05:34:59.214Z,7.66
2018-03-31T05:37:26.170Z,7.65
2018-03-31T05:39:53.673Z,7.70
2018-03-31T05:42:20.945Z,7.70
2018-03-31T05:44:47.676Z,7.71
2018-03-31T05:47:15.368Z,7.70
2018-03-31T05:49:42.010Z,7.67
2018-03-31T05:52:08.551Z,7.70
2018-03-31T05:54:35.122Z,7.73
2018-03-31T05:57:01.725Z,7.77
2018-03-31T05:59:28.299Z,7.87
2018-03-31T06:01:54.900Z,7.93
2018-03-31T06:04:22.346Z,7.90
2018-03-31T06:06:48.910Z,7.88
2018-03-31T06:09:15.693Z,7.89
2018-03-31T06:11:43.002Z,7.93
2018-03-31T06:14:09.588Z,8.01
2018-03-31T06:16:36.912Z,8.02
2018-03-31T06:19:03.487Z,8.00
2018-03-31T06:21:30.044Z,8.04
2018-03-31T06:23:56.777Z,8.06
2018-03-31T06:26:23.323Z,8.06
2018-03-31T06:28:50.694Z,8.12
2018-03-31T06:31:17.468Z,8.14
2018-03-31T06:33:43.996Z,8.15
2018-03-31T06:36:10.589Z,8.21
2018-03-31T06:38:37.135Z,8.22
2018-03-31T06:41:03.692Z,8.33
2018-03-31T06:43:30.654Z,8.37
2018-03-31T06:45:57.241Z,8.49
2018-03-31T06:48:23.781Z,8.65
2018-03-31T06:50:50.623Z,8.83
2018-03-31T06:53:17.384Z,8.96
2018-03-31T06:55:44.001Z,9.13
2018-03-31T06:58:10.651Z,9.29
2018-03-31T07:00:37.286Z,9.34
2018-03-31T07:03:04.589Z,9.33
2018-03-31T07:05:31.379Z,9.38
2018-03-31T07:07:58.054Z,9.44
2018-03-31T07:10:24.671Z,9.49
2018-03-31T07:12:51.212Z,9.46
2018-03-31T07:15:17.897Z,9.49
2018-03-31T07:17:45.362Z,9.59
2018-03-31T07:20:12.712Z,9.67
2018-03-31T07:22:40.067Z,9.72
2018-03-31T07:25:07.468Z,9.75
2018-03-31T07:27:34.134Z,9.63
2018-03-31T07:30:00.670Z,9.69
2018-03-31T07:32:27.415Z,9.76
2018-03-31T07:34:54.004Z,9.72
2018-03-31T07:37:20.618Z,9.96
2018-03-31T07:39:47.948Z,10.08
2018-03-31T07:42:14.724Z,10.14
2018-03-31T07:44:41.544Z,10.36
2018-03-31T07:47:08.925Z,10.45
2018-03-31T07:49:35.621Z,10.57
2018-03-31T07:52:02.204Z,10.72
2018-03-31T07:54:28.881Z,10.71
2018-03-31T07:56:55.472Z,10.76
2018-03-31T07:59:22.090Z,10.79
2018-03-31T08:01:49.391Z,10.72
2018-03-31T08:04:16.062Z,10.73
2018-03-31T08:06:43.618Z,10.83
2018-03-31T08:09:10.157Z,11.01
2018-03-31T08:11:36.695Z,11.14
2018-03-31T08:14:03.267Z,11.35
2018-03-31T08:16:30.565Z,11.29
2018-03-31T08:18:57.141Z,11.39
2018-03-31T08:21:24.507Z,11.53
2018-03-31T08:23:51.820Z,11.59
2018-03-31T08:26:18.413Z,11.83
2018-03-31T08:28:44.948Z,11.88
2018-03-31T08:31:11.557Z,11.91
2018-03-31T08:33:38.837Z,11.85
2018-03-31T08:36:05.377Z,11.96
2018-03-31T08:38:31.942Z,12.07
2018-03-31T08:40:58.638Z,12.15
2018-03-31T08:43:26.060Z,12.18
2018-03-31T08:45:52.650Z,12.29
2018-03-31T08:48:19.180Z,12.35
2018-03-31T08:50:45.868Z,12.37
2018-03-31T08:53:12.442Z,12.51
2018-03-31T08:55:39.708Z,12.70
2018-03-31T08:58:06.254Z,13.00
2018-03-31T09:00:32.949Z,13.26
2018-03-31T09:02:59.505Z,13.17
2018-03-31T09:05:26.878Z,13.02
2018-03-31T09:07:53.743Z,12.99
2018-03-31T09:10:20.451Z,12.93
2018-03-31T09:12:47.350Z,13.00
2018-03-31T09:15:13.936Z,13.07
2018-03-31T09:17:40.534Z,13.20
2018-03-31T09:20:07.116Z,13.30
2018-03-31T09:22:33.720Z,13.37
2018-03-31T09:25:00.400Z,13.25
2018-03-31T09:27:26.990Z,13.35
2018-03-31T09:29:53.632Z,13.28
2018-03-31T09:32:20.200Z,13.43
2018-03-31T09:34:46.853Z,13.48
2018-03-31T09:37:13.431Z,13.42
2018-03-31T09:39:40.025Z,13.42
2018-03-31T09:42:06.613Z,13.42
2018-03-31T09:44:33.262Z,13.62
2018-03-31T09:46:59.972Z,13.57
2018-03-31T09:49:26.539Z,13.54
2018-03-31T09:51:54.077Z,13.49
2018-03-31T09:54:20.725Z,13.60
2018-03-31T09:56:47.309Z,13.58
2018-03-31T09:59:14.131Z,13.56
2018-03-31T10:01:41.478Z,13.59
2018-03-31T10:04:08.804Z,13.53
2018-03-31T10:06:35.384Z,13.60
2018-03-31T10:09:02.920Z,13.64
2018-03-31T10:11:30.209Z,13.64
2018-03-31T10:13:56.790Z,13.47
2018-03-31T10:16:23.392Z,13.54
2018-03-31T10:18:49.968Z,13.57
2018-03-31T10:21:16.539Z,13.71
2018-03-31T10:23:43.914Z,13.49
2018-03-31T10:26:10.494Z,13.48
2018-03-31T10:28:37.265Z,13.52
2018-03-31T10:31:04.644Z,13.64
2018-03-31T10:33:31.227Z,13.71
2018-03-31T10:35:57.830Z,13.62
2018-03-31T10:38:24.399Z,13.81
2018-03-31T10:40:51.170Z,13.76
2018-03-31T10:43:18.790Z,13.89
2018-03-31T10:45:45.439Z,14.06
2018-03-31T10:48:12.096Z,14.10
2018-03-31T10:50:38.864Z,14.12
2018-03-31T10:53:06.220Z,13.89
2018-03-31T10:55:32.858Z,13.68
2018-03-31T10:58:00.153Z,13.71
2018-03-31T11:00:26.765Z,13.72
2018-03-31T11:02:53.429Z,13.90
2018-03-31T11:05:20.006Z,13.87
2018-03-31T11:07:46.598Z,14.00
2018-03-31T11:10:13.178Z,14.06
2018-03-31T11:12:39.758Z,14.02
2018-03-31T11:15:06.392Z,13.98
2018-03-31T11:17:33.004Z,13.94
2018-03-31T11:20:00.363Z,14.03
2018-03-31T11:22:27.698Z,14.06
2018-03-31T11:24:54.309Z,14.03
2018-03-31T11:27:21.008Z,13.99
2018-03-31T11:29:47.582Z,13.71
2018-03-31T11:32:14.329Z,13.85
2018-03-31T11:34:40.878Z,13.93
2018-03-31T11:37:07.453Z,14.02
2018-03-31T11:39:34.057Z,14.15
2018-03-31T11:42:00.623Z,14.29
2018-03-31T11:44:27.937Z,14.59
2018-03-31T11:46:54.695Z,14.65
2018-03-31T11:49:22.015Z,14.82
2018-03-31T11:51:48.595Z,14.59
2018-03-31T11:54:16.055Z,14.72
2018-03-31T11:56:43.389Z,14.84
2018-03-31T11:59:10.006Z,14.73
2018-03-31T12:01:36.588Z,14.88
2018-03-31T12:04:03.192Z,14.94
2018-03-31T12:06:29.777Z,14.96
2018-03-31T12:08:56.361Z,15.13
2018-03-31T12:11:22.948Z,15.44
2018-03-31T12:13:49.590Z,15.61
2018-03-31T12:16:16.164Z,15.64
2018-03-31T12:18:42.723Z,15.77
2018-03-31T12:21:09.309Z,15.99
2018-03-31T12:23:35.860Z,15.90
2018-03-31T12:26:02.455Z,15.80
2018-03-31T12:28:29.743Z,15.89
2018-03-31T12:30:56.321Z,15.86
2018-03-31T12:33:22.948Z,15.73
2018-03-31T12:35:49.572Z,15.68
2018-03-31T12:38:16.176Z,15.62
2018-03-31T12:40:42.760Z,15.64
2018-03-31T12:43:09.321Z,15.53
2018-03-31T12:45:35.949Z,15.70
2018-03-31T12:48:02.909Z,15.64
2018-03-31T12:50:29.547Z,15.54
2018-03-31T12:52:56.188Z,15.81
2018-03-31T12:55:23.737Z,15.67
2018-03-31T12:57:50.362Z,15.80
2018-03-31T13:00:16.917Z,15.88
2018-03-31T13:02:44.296Z,16.06
2018-03-31T13:05:10.871Z,15.72
2018-03-31T13:07:38.416Z,16.20
2018-03-31T13:10:05.077Z,16.28
2018-03-31T13:12:31.911Z,16.43
2018-03-31T13:14:58.620Z,16.54
2018-03-31T13:17:25.162Z,16.36
2018-03-31T13:19:51.816Z,16.36
2018-03-31T13:22:18.605Z,16.31
2018-03-31T13:24:45.299Z,16.43
2018-03-31T13:27:12.141Z,16.62
2018-03-31T13:29:38.747Z,16.52
2018-03-31T13:32:06.050Z,16.34
2018-03-31T13:34:32.689Z,16.24
2018-03-31T13:36:59.244Z,16.36
2018-03-31T13:39:25.950Z,16.25
2018-03-31T13:41:52.592Z,16.10
2018-03-31T13:44:20.317Z,15.93
2018-03-31T13:46:46.973Z,15.74
2018-03-31T13:49:13.585Z,15.56
2018-03-31T13:51:40.910Z,15.64
2018-03-31T13:54:07.551Z,15.62
2018-03-31T13:56:34.276Z,15.68
2018-03-31T13:59:00.864Z,15.55
2018-03-31T14:01:28.461Z,15.17
2018-03-31T14:03:55.915Z,15.02
2018-03-31T14:06:22.945Z,15.03
2018-03-31T14:08:49.683Z,15.27
2018-03-31T14:11:16.241Z,15.38
2018-03-31T14:13:42.912Z,15.55
2018-03-31T14:16:09.537Z,15.69
2018-03-31T14:18:36.165Z,15.81
2018-03-31T14:21:02.762Z,15.61
2018-03-31T14:23:29.568Z,15.78
2018-03-31T14:25:56.259Z,15.45
2018-03-31T14:28:22.847Z,15.61
2018-03-31T14:30:49.462Z,15.65
2018-03-31T14:33:16.077Z,15.42
2018-03-31T14:35:42.728Z,15.58
2018-03-31T14:38:09.418Z,15.97
2018-03-31T14:40:37.085Z,16.61
2018-03-31T14:43:04.397Z,16.73
2018-03-31T14:45:31.027Z,16.78
2018-03-31T14:47:57.665Z,16.65
2018-03-31T14:50:24.213Z,16.62
2018-03-31T14:52:50.908Z,16.54
2018-03-31T14:55:17.565Z,16.12
2018-03-31T14:57:44.155Z,16.02
2018-03-31T15:00:10.792Z,15.72
2018-03-31T15:02:38.252Z,15.84
2018-03-31T15:05:05.590Z,15.94
2018-03-31T15:07:32.195Z,15.76
2018-03-31T15:09:58.818Z,16.03
2018-03-31T15:12:25.499Z,16.07
2018-03-31T15:14:52.069Z,16.13
2018-03-31T15:17:19.376Z,16.00
2018-03-31T15:19:46.001Z,15.93
2018-03-31T15:22:12.851Z,16.00
2018-03-31T15:24:39.460Z,15.82
2018-03-31T15:27:06.082Z,15.69
2018-03-31T15:29:33.415Z,15.69
2018-03-31T15:32:00.038Z,15.32
2018-03-31T15:34:26.889Z,15.24
2018-03-31T15:36:53.573Z,15.40
2018-03-31T15:39:20.155Z,15.40
2018-03-31T15:41:46.968Z,14.89
2018-03-31T15:44:13.679Z,14.71
2018-03-31T15:46:41.263Z,14.51
2018-03-31T15:49:07.845Z,14.52
2018-03-31T15:51:34.505Z,14.52
2018-03-31T15:54:01.841Z,14.64
2018-03-31T15:56:28.456Z,14.70
2018-03-31T15:58:55.016Z,14.69
2018-03-31T16:01:21.614Z,14.54
2018-03-31T16:03:48.361Z,14.59
2018-03-31T16:06:15.086Z,14.37
2018-03-31T16:08:41.692Z,14.45
2018-03-31T16:11:09.032Z,14.45
2018-03-31T16:13:35.633Z,14.37
2018-03-31T16:16:02.236Z,14.38
2018-03-31T16:18:29.074Z,14.35
2018-03-31T16:20:56.577Z,14.31
2018-03-31T16:23:23.374Z,14.27
2018-03-31T16:25:50.691Z,14.25
2018-03-31T16:28:17.542Z,14.25
2018-03-31T16:30:44.140Z,14.13
2018-03-31T16:33:10.817Z,13.90
2018-03-31T16:35:37.659Z,13.79
2018-03-31T16:38:04.315Z,13.85
2018-03-31T16:40:31.673Z,13.81
2018-03-31T16:42:59.041Z,13.65
2018-03-31T16:45:28.402Z,13.73
2018-03-31T16:47:54.988Z,13.72
2018-03-31T16:50:21.712Z,13.75
2018-03-31T16:52:49.061Z,13.56
2018-03-31T16:55:16.420Z,13.53
2018-03-31T16:57:43.826Z,13.54
2018-03-31T17:00:10.418Z,13.60
2018-03-31T17:02:37.959Z,13.65
2018-03-31T17:05:04.627Z,13.57
2018-03-31T17:07:32.171Z,13.64
2018-03-31T17:10:00.525Z,13.71
2018-03-31T17:12:27.104Z,13.58
2018-03-31T17:14:53.696Z,13.51
2018-03-31T17:17:20.309Z,13.52
2018-03-31T17:19:46.905Z,13.42
2018-03-31T17:22:14.251Z,13.38
2018-03-31T17:24:41.626Z,13.40
2018-03-31T17:27:09.025Z,13.29
2018-03-31T17:29:35.604Z,13.31
2018-03-31T17:32:03.047Z,13.23
2018-03-31T17:34:29.628Z,13.23
2018-03-31T17:36:56.470Z,13.17
2018-03-31T17:39:23.998Z,13.21
2018-03-31T17:41:50.581Z,13.39
2018-03-31T17:44:17.251Z,13.17
2018-03-31T17:46:44.223Z,13.16
2018-03-31T17:49:11.566Z,13.04
2018-03-31T17:51:38.276Z,12.91
2018-03-31T17:54:04.982Z,12.86
2018-03-31T17:56:31.606Z,12.87
2018-03-31T17:58:59.270Z,13.12
2018-03-31T18:01:26.145Z,13.04
2018-03-31T18:03:52.726Z,13.05
2018-03-31T18:06:19.373Z,12.88
2018-03-31T18:08:46.719Z,12.85
2018-03-31T18:11:13.294Z,12.72
2018-03-31T18:13:39.968Z,12.92
2018-03-31T18:16:06.566Z,12.99
2018-03-31T18:18:33.485Z,12.88
2018-03-31T18:21:00.453Z,12.97
2018-03-31T18:23:27.369Z,12.97
2018-03-31T18:25:54.164Z,12.79
2018-03-31T18:28:21.575Z,12.89
2018-03-31T18:30:48.951Z,12.80
2018-03-31T18:33:15.548Z,12.82
2018-03-31T18:35:42.383Z,12.98
2018-03-31T18:38:09.380Z,13.05
2018-03-31T18:40:35.994Z,13.03
2018-03-31T18:43:03.391Z,13.02
2018-03-31T18:45:30.573Z,12.80
2018-03-31T18:47:57.166Z,12.78
2018-03-31T18:50:23.815Z,12.76
2018-03-31T18:52:50.492Z,12.47
2018-03-31T18:55:17.410Z,12.38
2018-03-31T18:57:44.010Z,12.33
2018-03-31T19:00:11.319Z,12.15
2018-03-31T19:02:38.343Z,12.04
2018-03-31T19:05:04.923Z,11.96
2018-03-31T19:07:32.288Z,11.94
2018-03-31T19:09:59.654Z,11.88
2018-03-31T19:12:27.038Z,11.85
2018-03-31T19:14:53.608Z,11.75
2018-03-31T19:17:20.253Z,11.68
2018-03-31T19:19:46.872Z,11.65
2018-03-31T19:22:13.478Z,11.70
2018-03-31T19:24:44.652Z,11.51
2018-03-31T19:27:11.232Z,11.43
2018-03-31T19:29:37.994Z,11.39
2018-03-31T19:32:04.835Z,11.25
2018-03-31T19:34:32.462Z,11.29
2018-03-31T19:36:59.018Z,11.19
2018-03-31T19:39:30.902Z,11.04
2018-03-31T19:41:58.213Z,10.94
2018-03-31T19:44:25.015Z,10.89
2018-03-31T19:46:51.639Z,10.86
2018-03-31T19:49:18.253Z,10.87
2018-03-31T19:51:44.913Z,10.90
2018-03-31T19:54:11.518Z,10.81
2018-03-31T19:56:38.853Z,10.84
2018-03-31T19:59:05.795Z,10.98
2018-03-31T20:01:32.701Z,10.95
2018-03-31T20:03:59.342Z,10.88
2018-03-31T20:06:26.162Z,10.85
2018-03-31T20:08:53.585Z,10.89
2018-03-31T20:11:20.208Z,10.79
2018-03-31T20:13:46.790Z,10.85
2018-03-31T20:16:14.516Z,10.78
2018-03-31T20:18:41.193Z,10.79
2018-03-31T20:21:08.545Z,10.79
2018-03-31T20:23:35.972Z,10.85
2018-03-31T20:26:02.592Z,10.74
2018-03-31T20:28:29.170Z,10.82
2018-03-31T20:30:56.516Z,10.89
2018-03-31T20:33:23.535Z,10.92
2018-03-31T20:35:50.170Z,10.86
2018-03-31T20:38:23.408Z,10.84
2018-03-31T20:40:50.813Z,10.84
2018-03-31T20:43:17.617Z,10.78
2018-03-31T20:45:44.448Z,10.79
2018-03-31T20:48:11.785Z,10.84
2018-03-31T20:50:38.805Z,10.89
2018-03-31T20:53:05.538Z,10.90
2018-03-31T20:55:32.117Z,10.90
2018-03-31T20:57:58.671Z,10.82
2018-03-31T21:00:26.140Z,10.84
2018-03-31T21:02:53.734Z,10.82
2018-03-31T21:05:20.439Z,10.82
2018-03-31T21:07:47.094Z,10.79
2018-03-31T21:10:13.601Z,10.75
2018-03-31T21:12:40.984Z,10.70
2018-03-31T21:15:07.601Z,10.72
2018-03-31T21:17:34.940Z,10.72
2018-03-31T21:22:35.856Z,10.67
2018-03-31T21:25:02.550Z,10.72
2018-03-31T21:27:29.897Z,10.74
2018-03-31T21:29:57.413Z,10.73
2018-03-31T21:32:24.015Z,10.73
2018-03-31T21:34:50.581Z,10.80
2018-03-31T21:37:17.294Z,10.80
2018-03-31T21:39:43.901Z,10.74
2018-03-31T21:42:11.517Z,10.68
2018-03-31T21:44:38.244Z,10.67
2018-03-31T21:47:04.825Z,10.74
2018-03-31T21:49:31.525Z,10.71
2018-03-31T21:51:58.381Z,10.67
2018-03-31T21:54:24.944Z,10.67
2018-03-31T21:56:52.330Z,10.71
2018-03-31T21:59:19.929Z,10.73
2018-03-31T22:01:46.807Z,10.74
2018-03-31T22:04:13.601Z,10.69
2018-03-31T22:06:40.671Z,10.71
2018-03-31T22:09:07.388Z,10.73
2018-03-31T22:11:34.002Z,10.65
2018-03-31T22:14:05.832Z,10.58
2018-03-31T22:16:32.537Z,10.60
2018-03-31T22:18:59.260Z,10.57
2018-03-31T22:21:26.040Z,10.63
2018-03-31T22:23:52.892Z,10.63
2018-03-31T22:26:19.590Z,10.64
2018-03-31T22:28:46.230Z,10.61
2018-03-31T22:31:13.080Z,10.55
2018-03-31T22:33:39.734Z,10.50
2018-03-31T22:36:06.554Z,10.53
2018-03-31T22:38:33.128Z,10.53
2018-03-31T22:40:59.746Z,10.60
2018-03-31T22:43:26.502Z,10.49
2018-03-31T22:45:53.432Z,10.43
2018-03-31T22:48:20.249Z,10.37
2018-03-31T22:50:46.895Z,10.28
2018-03-31T22:53:13.492Z,10.24
2018-03-31T22:55:40.813Z,10.21
2018-03-31T22:58:07.500Z,10.12
2018-03-31T23:00:34.867Z,10.04
2018-03-31T23:03:02.380Z,9.95
2018-03-31T23:05:29.012Z,9.84
2018-03-31T23:07:55.673Z,9.80
2018-03-31T23:10:22.239Z,9.79
2018-03-31T23:12:48.880Z,9.82
2018-03-31T23:15:15.469Z,9.83
2018-03-31T23:17:42.148Z,9.70
2018-03-31T23:20:09.556Z,9.65
2018-03-31T23:22:36.303Z,9.58
2018-03-31T23:25:02.879Z,9.59
2018-03-31T23:27:30.244Z,9.60
2018-03-31T23:29:56.895Z,9.62
2018-03-31T23:32:23.483Z,9.61
2018-03-31T23:34:50.096Z,9.58
2018-03-31T23:37:16.660Z,9.64
2018-03-31T23:39:43.421Z,9.68
2018-03-31T23:42:10.756Z,9.68
2018-03-31T23:44:37.384Z,9.76
2018-03-31T23:47:04.066Z,9.81
2018-03-31T23:49:31.145Z,9.76
2018-03-31T23:51:57.718Z,9.76
2018-03-31T23:54:24.332Z,9.83
2018-03-31T23:56:50.918Z,9.78
2018-03-31T23:59:18.271Z,9.75
